sensor_id;sensor_type;location;lat;lon;timestamp;temperature;humidity
61253;DHT22;47127;47.516;8.596;2022-08-21T00:01:27;18.00;99.90
61253;DHT22;47127;47.516;8.596;2022-08-21T00:03:54;18.00;99.90
61253;DHT22;47127;47.516;8.596;2022-08-21T00:06:20;18.00;99.90
61253;DHT22;47127;47.516;8.596;2022-08-21T00:08:46;17.90;99.90
61253;DHT22;47127;47.516;8.596;2022-08-21T00:11:12;17.90;99.90
61253;DHT22;47127;47.516;8.596;2022-08-21T00:13:37;17.90;99.90
61253;DHT22;47127;47.516;8.596;2022-08-21T00:16:03;17.90;99.90
61253;DHT22;47127;47.516;8.596;2022-08-21T00:18:29;17.90;99.90
61253;DHT22;47127;47.516;8.596;2022-08-21T00:20:55;17.90;99.90
61253;DHT22;47127;47.516;8.596;2022-08-21T00:23:21;18.00;99.90
61253;DHT22;47127;47.516;8.596;2022-08-21T00:25:47;18.00;99.90
61253;DHT22;47127;47.516;8.596;2022-08-21T00:28:13;18.00;99.90
61253;DHT22;47127;47.516;8.596;2022-08-21T00:30:39;17.90;99.90
61253;DHT22;47127;47.516;8.596;2022-08-21T00:33:06;17.90;99.90
61253;DHT22;47127;47.516;8.596;2022-08-21T00:35:34;17.90;99.90
61253;DHT22;47127;47.516;8.596;2022-08-21T00:38:01;17.90;99.90
61253;DHT22;47127;47.516;8.596;2022-08-21T00:40:31;17.90;99.90
61253;DHT22;47127;47.516;8.596;2022-08-21T00:42:57;18.00;99.90
61253;DHT22;47127;47.516;8.596;2022-08-21T00:45:23;17.90;99.90
61253;DHT22;47127;47.516;8.596;2022-08-21T00:47:51;18.00;99.90
61253;DHT22;47127;47.516;8.596;2022-08-21T00:50:18;18.00;99.90
61253;DHT22;47127;47.516;8.596;2022-08-21T00:52:45;18.00;99.90
61253;DHT22;47127;47.516;8.596;2022-08-21T00:55:11;18.00;99.90
61253;DHT22;47127;47.516;8.596;2022-08-21T00:57:50;18.00;99.90
61253;DHT22;47127;47.516;8.596;2022-08-21T01:00:19;18.00;99.90
61253;DHT22;47127;47.516;8.596;2022-08-21T01:02:46;18.00;99.90
61253;DHT22;47127;47.516;8.596;2022-08-21T01:05:12;18.00;99.90
61253;DHT22;47127;47.516;8.596;2022-08-21T01:07:41;17.90;99.90
61253;DHT22;47127;47.516;8.596;2022-08-21T01:10:07;18.00;99.90
61253;DHT22;47127;47.516;8.596;2022-08-21T01:12:34;18.00;99.90
61253;DHT22;47127;47.516;8.596;2022-08-21T01:15:02;18.00;99.90
61253;DHT22;47127;47.516;8.596;2022-08-21T01:17:29;17.90;99.90
61253;DHT22;47127;47.516;8.596;2022-08-21T01:19:59;17.90;99.90
61253;DHT22;47127;47.516;8.596;2022-08-21T01:22:26;17.90;99.90
61253;DHT22;47127;47.516;8.596;2022-08-21T01:24:51;17.90;99.90
61253;DHT22;47127;47.516;8.596;2022-08-21T01:27:17;17.80;99.90
61253;DHT22;47127;47.516;8.596;2022-08-21T01:29:47;17.80;99.90
61253;DHT22;47127;47.516;8.596;2022-08-21T01:32:18;17.70;99.90
61253;DHT22;47127;47.516;8.596;2022-08-21T01:34:46;17.70;99.90
61253;DHT22;47127;47.516;8.596;2022-08-21T01:37:12;17.70;99.90
61253;DHT22;47127;47.516;8.596;2022-08-21T01:39:38;17.70;99.90
61253;DHT22;47127;47.516;8.596;2022-08-21T01:42:05;17.70;99.90
61253;DHT22;47127;47.516;8.596;2022-08-21T01:44:31;17.70;99.90
61253;DHT22;47127;47.516;8.596;2022-08-21T01:47:00;17.60;99.90
61253;DHT22;47127;47.516;8.596;2022-08-21T01:49:26;17.70;99.90
61253;DHT22;47127;47.516;8.596;2022-08-21T01:51:52;17.70;99.90
61253;DHT22;47127;47.516;8.596;2022-08-21T01:54:18;17.60;99.90
61253;DHT22;47127;47.516;8.596;2022-08-21T01:56:46;17.60;99.90
61253;DHT22;47127;47.516;8.596;2022-08-21T01:59:12;17.60;99.90
61253;DHT22;47127;47.516;8.596;2022-08-21T02:01:38;17.60;99.90
61253;DHT22;47127;47.516;8.596;2022-08-21T02:04:08;17.50;99.90
61253;DHT22;47127;47.516;8.596;2022-08-21T02:06:35;17.50;99.90
61253;DHT22;47127;47.516;8.596;2022-08-21T02:09:04;17.50;99.90
61253;DHT22;47127;47.516;8.596;2022-08-21T02:11:32;17.40;99.90
61253;DHT22;47127;47.516;8.596;2022-08-21T02:13:57;17.40;99.90
61253;DHT22;47127;47.516;8.596;2022-08-21T02:16:23;17.30;99.90
61253;DHT22;47127;47.516;8.596;2022-08-21T02:18:48;17.40;99.90
61253;DHT22;47127;47.516;8.596;2022-08-21T02:21:14;17.30;99.90
61253;DHT22;47127;47.516;8.596;2022-08-21T02:23:40;17.40;99.90
61253;DHT22;47127;47.516;8.596;2022-08-21T02:26:07;17.40;99.90
61253;DHT22;47127;47.516;8.596;2022-08-21T02:28:34;17.40;99.90
61253;DHT22;47127;47.516;8.596;2022-08-21T02:31:00;17.40;99.90
61253;DHT22;47127;47.516;8.596;2022-08-21T02:33:26;17.40;99.90
61253;DHT22;47127;47.516;8.596;2022-08-21T02:35:53;17.50;99.90
61253;DHT22;47127;47.516;8.596;2022-08-21T02:38:22;17.40;99.90
61253;DHT22;47127;47.516;8.596;2022-08-21T02:40:49;17.40;99.90
61253;DHT22;47127;47.516;8.596;2022-08-21T02:43:15;17.30;99.90
61253;DHT22;47127;47.516;8.596;2022-08-21T02:45:42;17.30;99.90
61253;DHT22;47127;47.516;8.596;2022-08-21T02:48:10;17.30;99.90
61253;DHT22;47127;47.516;8.596;2022-08-21T02:50:42;17.20;99.90
61253;DHT22;47127;47.516;8.596;2022-08-21T02:53:11;17.20;99.90
61253;DHT22;47127;47.516;8.596;2022-08-21T02:55:37;17.30;99.90
61253;DHT22;47127;47.516;8.596;2022-08-21T02:58:05;17.30;99.90
61253;DHT22;47127;47.516;8.596;2022-08-21T03:00:33;17.30;99.90
61253;DHT22;47127;47.516;8.596;2022-08-21T03:02:59;17.20;99.90
61253;DHT22;47127;47.516;8.596;2022-08-21T03:05:27;17.20;99.90
61253;DHT22;47127;47.516;8.596;2022-08-21T03:07:54;17.20;99.90
61253;DHT22;47127;47.516;8.596;2022-08-21T03:10:20;17.20;99.90
61253;DHT22;47127;47.516;8.596;2022-08-21T03:12:49;17.20;99.90
61253;DHT22;47127;47.516;8.596;2022-08-21T03:15:18;17.20;99.90
61253;DHT22;47127;47.516;8.596;2022-08-21T03:17:45;17.20;99.90
61253;DHT22;47127;47.516;8.596;2022-08-21T03:20:14;17.10;99.90
61253;DHT22;47127;47.516;8.596;2022-08-21T03:22:40;17.20;99.90
61253;DHT22;47127;47.516;8.596;2022-08-21T03:25:06;17.20;99.90
61253;DHT22;47127;47.516;8.596;2022-08-21T03:27:32;17.20;99.90
61253;DHT22;47127;47.516;8.596;2022-08-21T03:29:59;17.30;99.90
61253;DHT22;47127;47.516;8.596;2022-08-21T03:32:25;17.20;99.90
61253;DHT22;47127;47.516;8.596;2022-08-21T03:34:51;17.20;99.90
61253;DHT22;47127;47.516;8.596;2022-08-21T03:37:16;17.10;99.90
61253;DHT22;47127;47.516;8.596;2022-08-21T03:39:43;17.20;99.90
61253;DHT22;47127;47.516;8.596;2022-08-21T03:42:10;17.10;99.90
61253;DHT22;47127;47.516;8.596;2022-08-21T03:44:36;17.20;99.90
61253;DHT22;47127;47.516;8.596;2022-08-21T03:47:02;17.10;99.90
61253;DHT22;47127;47.516;8.596;2022-08-21T03:49:28;17.20;99.90
61253;DHT22;47127;47.516;8.596;2022-08-21T03:51:54;17.20;99.90
61253;DHT22;47127;47.516;8.596;2022-08-21T03:54:19;17.20;99.90
61253;DHT22;47127;47.516;8.596;2022-08-21T03:56:45;17.20;99.90
61253;DHT22;47127;47.516;8.596;2022-08-21T03:59:11;17.20;99.90
61253;DHT22;47127;47.516;8.596;2022-08-21T04:01:37;17.20;99.90
61253;DHT22;47127;47.516;8.596;2022-08-21T04:04:03;17.20;99.90
61253;DHT22;47127;47.516;8.596;2022-08-21T04:06:29;17.20;99.90
61253;DHT22;47127;47.516;8.596;2022-08-21T04:08:55;17.10;99.90
61253;DHT22;47127;47.516;8.596;2022-08-21T04:11:20;17.10;99.90
61253;DHT22;47127;47.516;8.596;2022-08-21T04:13:46;17.10;99.90
61253;DHT22;47127;47.516;8.596;2022-08-21T04:16:12;17.10;99.90
61253;DHT22;47127;47.516;8.596;2022-08-21T04:18:38;17.10;99.90
61253;DHT22;47127;47.516;8.596;2022-08-21T04:21:05;17.00;99.90
61253;DHT22;47127;47.516;8.596;2022-08-21T04:23:32;17.10;99.90
61253;DHT22;47127;47.516;8.596;2022-08-21T04:25:58;17.20;99.90
61253;DHT22;47127;47.516;8.596;2022-08-21T04:28:25;17.20;99.90
61253;DHT22;47127;47.516;8.596;2022-08-21T04:30:52;17.10;99.90
61253;DHT22;47127;47.516;8.596;2022-08-21T04:33:19;17.00;99.90
61253;DHT22;47127;47.516;8.596;2022-08-21T04:35:44;17.00;99.90
61253;DHT22;47127;47.516;8.596;2022-08-21T04:38:10;17.10;99.90
61253;DHT22;47127;47.516;8.596;2022-08-21T04:40:36;17.10;99.90
61253;DHT22;47127;47.516;8.596;2022-08-21T04:43:05;17.10;99.90
61253;DHT22;47127;47.516;8.596;2022-08-21T04:45:34;17.20;99.90
61253;DHT22;47127;47.516;8.596;2022-08-21T04:48:02;17.20;99.90
61253;DHT22;47127;47.516;8.596;2022-08-21T04:50:43;17.20;99.90
61253;DHT22;47127;47.516;8.596;2022-08-21T04:53:18;17.30;99.90
61253;DHT22;47127;47.516;8.596;2022-08-21T04:55:44;17.30;99.90
61253;DHT22;47127;47.516;8.596;2022-08-21T04:58:13;17.30;99.90
61253;DHT22;47127;47.516;8.596;2022-08-21T05:00:40;17.30;99.90
61253;DHT22;47127;47.516;8.596;2022-08-21T05:03:08;17.40;99.90
61253;DHT22;47127;47.516;8.596;2022-08-21T05:05:35;17.40;99.90
61253;DHT22;47127;47.516;8.596;2022-08-21T05:08:01;17.40;99.90
61253;DHT22;47127;47.516;8.596;2022-08-21T05:10:28;17.40;99.90
61253;DHT22;47127;47.516;8.596;2022-08-21T05:12:54;17.30;99.90
61253;DHT22;47127;47.516;8.596;2022-08-21T05:15:20;17.30;99.90
61253;DHT22;47127;47.516;8.596;2022-08-21T05:17:46;17.30;99.90
61253;DHT22;47127;47.516;8.596;2022-08-21T05:20:12;17.20;99.90
61253;DHT22;47127;47.516;8.596;2022-08-21T05:22:39;17.20;99.90
61253;DHT22;47127;47.516;8.596;2022-08-21T05:25:06;17.20;99.90
61253;DHT22;47127;47.516;8.596;2022-08-21T05:27:32;17.20;99.90
61253;DHT22;47127;47.516;8.596;2022-08-21T05:29:57;17.20;99.90
61253;DHT22;47127;47.516;8.596;2022-08-21T05:32:23;17.20;99.90
61253;DHT22;47127;47.516;8.596;2022-08-21T05:34:49;17.20;99.90
61253;DHT22;47127;47.516;8.596;2022-08-21T05:37:15;17.20;99.90
61253;DHT22;47127;47.516;8.596;2022-08-21T05:39:41;17.30;99.90
61253;DHT22;47127;47.516;8.596;2022-08-21T05:42:07;17.30;99.90
61253;DHT22;47127;47.516;8.596;2022-08-21T05:44:32;17.30;99.90
61253;DHT22;47127;47.516;8.596;2022-08-21T05:47:06;17.40;99.90
61253;DHT22;47127;47.516;8.596;2022-08-21T05:49:33;17.40;99.90
61253;DHT22;47127;47.516;8.596;2022-08-21T05:51:59;17.50;99.90
61253;DHT22;47127;47.516;8.596;2022-08-21T05:54:24;17.60;99.90
61253;DHT22;47127;47.516;8.596;2022-08-21T05:56:50;17.70;99.90
61253;DHT22;47127;47.516;8.596;2022-08-21T05:59:17;17.70;99.90
61253;DHT22;47127;47.516;8.596;2022-08-21T06:01:43;17.70;99.90
61253;DHT22;47127;47.516;8.596;2022-08-21T06:04:10;17.70;99.90
61253;DHT22;47127;47.516;8.596;2022-08-21T06:06:36;17.70;99.90
61253;DHT22;47127;47.516;8.596;2022-08-21T06:09:02;17.70;99.90
61253;DHT22;47127;47.516;8.596;2022-08-21T06:11:29;17.70;99.90
61253;DHT22;47127;47.516;8.596;2022-08-21T06:13:55;17.70;99.90
61253;DHT22;47127;47.516;8.596;2022-08-21T06:16:21;17.80;99.90
61253;DHT22;47127;47.516;8.596;2022-08-21T06:18:48;17.80;99.90
61253;DHT22;47127;47.516;8.596;2022-08-21T06:21:14;17.90;99.90
61253;DHT22;47127;47.516;8.596;2022-08-21T06:23:40;17.90;99.90
61253;DHT22;47127;47.516;8.596;2022-08-21T06:26:07;18.00;99.90
61253;DHT22;47127;47.516;8.596;2022-08-21T06:28:35;18.10;99.90
61253;DHT22;47127;47.516;8.596;2022-08-21T06:31:00;18.20;99.90
61253;DHT22;47127;47.516;8.596;2022-08-21T06:33:26;18.30;99.90
61253;DHT22;47127;47.516;8.596;2022-08-21T06:35:52;18.30;99.90
61253;DHT22;47127;47.516;8.596;2022-08-21T06:38:17;18.30;99.90
61253;DHT22;47127;47.516;8.596;2022-08-21T06:40:43;18.30;99.90
61253;DHT22;47127;47.516;8.596;2022-08-21T06:43:14;18.20;99.90
61253;DHT22;47127;47.516;8.596;2022-08-21T06:45:40;18.10;99.90
61253;DHT22;47127;47.516;8.596;2022-08-21T06:48:06;18.10;99.90
61253;DHT22;47127;47.516;8.596;2022-08-21T06:50:35;18.20;99.90
61253;DHT22;47127;47.516;8.596;2022-08-21T06:53:07;18.30;99.90
61253;DHT22;47127;47.516;8.596;2022-08-21T06:55:33;18.40;99.90
61253;DHT22;47127;47.516;8.596;2022-08-21T06:57:59;18.30;99.90
61253;DHT22;47127;47.516;8.596;2022-08-21T07:00:25;18.40;99.90
61253;DHT22;47127;47.516;8.596;2022-08-21T07:02:51;18.50;99.90
61253;DHT22;47127;47.516;8.596;2022-08-21T07:05:17;18.70;99.90
61253;DHT22;47127;47.516;8.596;2022-08-21T07:07:43;18.70;99.90
61253;DHT22;47127;47.516;8.596;2022-08-21T07:10:08;18.70;99.90
61253;DHT22;47127;47.516;8.596;2022-08-21T07:12:34;18.80;99.90
61253;DHT22;47127;47.516;8.596;2022-08-21T07:15:00;18.90;99.90
61253;DHT22;47127;47.516;8.596;2022-08-21T07:17:26;18.80;99.90
61253;DHT22;47127;47.516;8.596;2022-08-21T07:19:51;18.80;99.90
61253;DHT22;47127;47.516;8.596;2022-08-21T07:22:20;18.70;99.90
61253;DHT22;47127;47.516;8.596;2022-08-21T07:24:46;18.80;99.90
61253;DHT22;47127;47.516;8.596;2022-08-21T07:27:12;18.80;99.90
61253;DHT22;47127;47.516;8.596;2022-08-21T07:29:37;18.80;99.90
61253;DHT22;47127;47.516;8.596;2022-08-21T07:32:04;18.80;99.90
61253;DHT22;47127;47.516;8.596;2022-08-21T07:34:30;18.90;99.90
61253;DHT22;47127;47.516;8.596;2022-08-21T07:36:56;19.00;99.90
61253;DHT22;47127;47.516;8.596;2022-08-21T07:39:22;19.00;99.90
61253;DHT22;47127;47.516;8.596;2022-08-21T07:41:48;19.20;99.90
61253;DHT22;47127;47.516;8.596;2022-08-21T07:44:13;19.30;99.90
61253;DHT22;47127;47.516;8.596;2022-08-21T07:46:39;19.40;99.90
61253;DHT22;47127;47.516;8.596;2022-08-21T07:49:04;19.50;99.90
61253;DHT22;47127;47.516;8.596;2022-08-21T07:51:30;19.40;99.90
61253;DHT22;47127;47.516;8.596;2022-08-21T07:53:57;19.50;99.90
61253;DHT22;47127;47.516;8.596;2022-08-21T07:56:24;19.50;99.90
61253;DHT22;47127;47.516;8.596;2022-08-21T07:58:50;19.50;99.90
61253;DHT22;47127;47.516;8.596;2022-08-21T08:01:16;19.50;99.90
61253;DHT22;47127;47.516;8.596;2022-08-21T08:03:42;19.50;99.90
61253;DHT22;47127;47.516;8.596;2022-08-21T08:06:08;19.70;99.90
61253;DHT22;47127;47.516;8.596;2022-08-21T08:08:38;19.70;99.90
61253;DHT22;47127;47.516;8.596;2022-08-21T08:11:06;19.60;99.90
61253;DHT22;47127;47.516;8.596;2022-08-21T08:13:37;19.70;99.90
61253;DHT22;47127;47.516;8.596;2022-08-21T08:16:03;19.80;99.90
61253;DHT22;47127;47.516;8.596;2022-08-21T08:18:28;19.80;99.90
61253;DHT22;47127;47.516;8.596;2022-08-21T08:20:54;19.90;99.90
61253;DHT22;47127;47.516;8.596;2022-08-21T08:23:19;19.90;99.90
61253;DHT22;47127;47.516;8.596;2022-08-21T08:25:45;19.90;99.90
61253;DHT22;47127;47.516;8.596;2022-08-21T08:28:10;19.80;99.90
61253;DHT22;47127;47.516;8.596;2022-08-21T08:30:36;20.00;99.90
61253;DHT22;47127;47.516;8.596;2022-08-21T08:33:02;20.00;99.90
61253;DHT22;47127;47.516;8.596;2022-08-21T08:35:27;20.30;99.90
61253;DHT22;47127;47.516;8.596;2022-08-21T08:37:54;20.40;99.90
61253;DHT22;47127;47.516;8.596;2022-08-21T08:42:55;20.80;99.90
61253;DHT22;47127;47.516;8.596;2022-08-21T08:45:22;20.90;99.90
61253;DHT22;47127;47.516;8.596;2022-08-21T08:47:58;21.00;99.90
61253;DHT22;47127;47.516;8.596;2022-08-21T08:50:44;21.20;99.90
61253;DHT22;47127;47.516;8.596;2022-08-21T08:53:23;21.30;99.90
61253;DHT22;47127;47.516;8.596;2022-08-21T08:55:51;21.70;99.90
61253;DHT22;47127;47.516;8.596;2022-08-21T08:58:27;21.60;99.90
61253;DHT22;47127;47.516;8.596;2022-08-21T09:00:56;21.40;99.90
61253;DHT22;47127;47.516;8.596;2022-08-21T09:03:23;21.60;99.90
61253;DHT22;47127;47.516;8.596;2022-08-21T09:06:22;21.80;99.90
61253;DHT22;47127;47.516;8.596;2022-08-21T09:09:23;21.90;99.90
61253;DHT22;47127;47.516;8.596;2022-08-21T09:12:07;21.90;99.90
61253;DHT22;47127;47.516;8.596;2022-08-21T09:23:40;21.70;99.90
61253;DHT22;47127;47.516;8.596;2022-08-21T09:26:17;21.70;99.90
61253;DHT22;47127;47.516;8.596;2022-08-21T09:28:44;21.60;99.90
61253;DHT22;47127;47.516;8.596;2022-08-21T09:31:28;21.40;99.90
61253;DHT22;47127;47.516;8.596;2022-08-21T09:34:03;21.50;99.90
61253;DHT22;47127;47.516;8.596;2022-08-21T09:36:47;21.50;99.90
61253;DHT22;47127;47.516;8.596;2022-08-21T09:39:29;21.50;99.90
61253;DHT22;47127;47.516;8.596;2022-08-21T09:42:04;21.40;99.90
61253;DHT22;47127;47.516;8.596;2022-08-21T09:44:33;21.40;99.90
61253;DHT22;47127;47.516;8.596;2022-08-21T09:47:01;21.60;99.90
61253;DHT22;47127;47.516;8.596;2022-08-21T09:49:32;21.60;99.90
61253;DHT22;47127;47.516;8.596;2022-08-21T09:51:58;21.60;99.90
61253;DHT22;47127;47.516;8.596;2022-08-21T09:54:36;21.60;99.90
61253;DHT22;47127;47.516;8.596;2022-08-21T09:59:54;21.70;99.90
61253;DHT22;47127;47.516;8.596;2022-08-21T10:02:30;21.70;99.90
61253;DHT22;47127;47.516;8.596;2022-08-21T10:07:41;21.70;99.90
61253;DHT22;47127;47.516;8.596;2022-08-21T10:10:20;21.80;99.90
61253;DHT22;47127;47.516;8.596;2022-08-21T10:18:10;22.20;99.90
61253;DHT22;47127;47.516;8.596;2022-08-21T10:25:50;22.40;99.90
61253;DHT22;47127;47.516;8.596;2022-08-21T10:28:37;22.70;99.90
61253;DHT22;47127;47.516;8.596;2022-08-21T10:31:29;22.80;99.90
61253;DHT22;47127;47.516;8.596;2022-08-21T10:34:45;22.80;99.90
61253;DHT22;47127;47.516;8.596;2022-08-21T10:39:53;22.80;99.90
61253;DHT22;47127;47.516;8.596;2022-08-21T10:42:33;22.80;99.90
61253;DHT22;47127;47.516;8.596;2022-08-21T10:47:46;23.00;99.90
61253;DHT22;47127;47.516;8.596;2022-08-21T10:55:26;23.10;99.90
61253;DHT22;47127;47.516;8.596;2022-08-21T11:00:55;23.40;99.90
61253;DHT22;47127;47.516;8.596;2022-08-21T11:03:32;23.60;99.90
61253;DHT22;47127;47.516;8.596;2022-08-21T11:06:05;23.90;99.90
61253;DHT22;47127;47.516;8.596;2022-08-21T11:08:43;24.10;99.90
61253;DHT22;47127;47.516;8.596;2022-08-21T11:11:18;24.30;99.90
61253;DHT22;47127;47.516;8.596;2022-08-21T11:13:49;24.40;98.80
61253;DHT22;47127;47.516;8.596;2022-08-21T11:16:42;24.60;98.40
61253;DHT22;47127;47.516;8.596;2022-08-21T11:19:17;24.60;98.20
61253;DHT22;47127;47.516;8.596;2022-08-21T11:30:03;25.00;96.40
61253;DHT22;47127;47.516;8.596;2022-08-21T11:35:46;25.60;94.50
61253;DHT22;47127;47.516;8.596;2022-08-21T11:38:26;25.60;94.90
61253;DHT22;47127;47.516;8.596;2022-08-21T11:46:46;26.10;92.80
61253;DHT22;47127;47.516;8.596;2022-08-21T11:49:41;26.00;93.40
61253;DHT22;47127;47.516;8.596;2022-08-21T11:52:29;26.10;92.40
61253;DHT22;47127;47.516;8.596;2022-08-21T11:55:02;26.20;91.40
61253;DHT22;47127;47.516;8.596;2022-08-21T11:57:55;26.40;92.20
61253;DHT22;47127;47.516;8.596;2022-08-21T12:00:26;26.60;91.50
61253;DHT22;47127;47.516;8.596;2022-08-21T12:02:56;26.70;91.30
61253;DHT22;47127;47.516;8.596;2022-08-21T12:05:27;26.70;90.80
61253;DHT22;47127;47.516;8.596;2022-08-21T12:08:05;26.80;91.20
61253;DHT22;47127;47.516;8.596;2022-08-21T12:10:40;26.90;90.40
61253;DHT22;47127;47.516;8.596;2022-08-21T12:13:08;27.00;89.40
61253;DHT22;47127;47.516;8.596;2022-08-21T12:15:34;27.00;85.50
61253;DHT22;47127;47.516;8.596;2022-08-21T12:18:05;27.00;90.40
61253;DHT22;47127;47.516;8.596;2022-08-21T12:25:40;26.70;90.00
61253;DHT22;47127;47.516;8.596;2022-08-21T12:28:08;26.60;90.00
61253;DHT22;47127;47.516;8.596;2022-08-21T12:30:39;26.40;89.40
61253;DHT22;47127;47.516;8.596;2022-08-21T12:35:43;27.20;89.00
61253;DHT22;47127;47.516;8.596;2022-08-21T12:38:20;27.30;84.80
61253;DHT22;47127;47.516;8.596;2022-08-21T12:41:06;26.70;82.70
61253;DHT22;47127;47.516;8.596;2022-08-21T12:43:40;26.10;84.50
61253;DHT22;47127;47.516;8.596;2022-08-21T12:46:20;25.70;85.50
61253;DHT22;47127;47.516;8.596;2022-08-21T12:48:55;25.70;85.60
61253;DHT22;47127;47.516;8.596;2022-08-21T12:54:28;26.50;83.00
61253;DHT22;47127;47.516;8.596;2022-08-21T12:57:03;26.70;81.30
61253;DHT22;47127;47.516;8.596;2022-08-21T12:59:30;27.00;80.10
61253;DHT22;47127;47.516;8.596;2022-08-21T13:01:59;27.20;78.70
61253;DHT22;47127;47.516;8.596;2022-08-21T13:04:40;27.50;78.20
61253;DHT22;47127;47.516;8.596;2022-08-21T13:07:12;27.70;77.60
61253;DHT22;47127;47.516;8.596;2022-08-21T13:09:47;27.80;77.00
61253;DHT22;47127;47.516;8.596;2022-08-21T13:12:15;27.60;75.60
61253;DHT22;47127;47.516;8.596;2022-08-21T13:14:42;27.00;75.50
61253;DHT22;47127;47.516;8.596;2022-08-21T13:17:10;27.00;75.90
61253;DHT22;47127;47.516;8.596;2022-08-21T13:19:36;27.30;75.70
61253;DHT22;47127;47.516;8.596;2022-08-21T13:22:03;27.60;75.70
61253;DHT22;47127;47.516;8.596;2022-08-21T13:24:37;27.70;73.90
61253;DHT22;47127;47.516;8.596;2022-08-21T13:27:03;27.60;71.80
61253;DHT22;47127;47.516;8.596;2022-08-21T13:29:33;27.40;70.80
61253;DHT22;47127;47.516;8.596;2022-08-21T13:32:04;26.90;71.70
61253;DHT22;47127;47.516;8.596;2022-08-21T13:34:34;27.00;71.50
61253;DHT22;47127;47.516;8.596;2022-08-21T13:37:07;27.10;70.60
61253;DHT22;47127;47.516;8.596;2022-08-21T13:39:34;27.20;65.30
61253;DHT22;47127;47.516;8.596;2022-08-21T13:42:02;27.30;62.00
61253;DHT22;47127;47.516;8.596;2022-08-21T13:44:41;27.30;62.70
61253;DHT22;47127;47.516;8.596;2022-08-21T13:47:10;27.70;60.80
61253;DHT22;47127;47.516;8.596;2022-08-21T13:49:42;27.60;62.40
61253;DHT22;47127;47.516;8.596;2022-08-21T13:52:23;27.60;64.90
61253;DHT22;47127;47.516;8.596;2022-08-21T13:54:55;27.70;64.10
61253;DHT22;47127;47.516;8.596;2022-08-21T13:57:33;28.20;63.10
61253;DHT22;47127;47.516;8.596;2022-08-21T14:00:18;28.10;63.10
61253;DHT22;47127;47.516;8.596;2022-08-21T14:02:49;28.20;63.70
61253;DHT22;47127;47.516;8.596;2022-08-21T14:05:28;28.00;61.90
61253;DHT22;47127;47.516;8.596;2022-08-21T14:08:08;27.90;63.10
61253;DHT22;47127;47.516;8.596;2022-08-21T14:10:42;28.40;59.00
61253;DHT22;47127;47.516;8.596;2022-08-21T14:13:29;28.50;58.10
61253;DHT22;47127;47.516;8.596;2022-08-21T14:16:00;28.90;58.40
61253;DHT22;47127;47.516;8.596;2022-08-21T14:18:26;28.40;58.20
61253;DHT22;47127;47.516;8.596;2022-08-21T14:21:04;28.00;57.00
61253;DHT22;47127;47.516;8.596;2022-08-21T14:23:30;28.20;58.50
61253;DHT22;47127;47.516;8.596;2022-08-21T14:26:00;28.50;56.70
61253;DHT22;47127;47.516;8.596;2022-08-21T14:28:30;28.10;56.90
61253;DHT22;47127;47.516;8.596;2022-08-21T14:30:58;28.30;56.80
61253;DHT22;47127;47.516;8.596;2022-08-21T14:33:29;28.60;56.60
61253;DHT22;47127;47.516;8.596;2022-08-21T14:35:56;29.00;55.30
61253;DHT22;47127;47.516;8.596;2022-08-21T14:38:24;29.10;53.00
61253;DHT22;47127;47.516;8.596;2022-08-21T14:40:54;29.10;54.30
61253;DHT22;47127;47.516;8.596;2022-08-21T14:43:21;29.60;53.80
61253;DHT22;47127;47.516;8.596;2022-08-21T14:45:47;29.70;53.10
61253;DHT22;47127;47.516;8.596;2022-08-21T14:48:12;29.80;52.00
61253;DHT22;47127;47.516;8.596;2022-08-21T14:50:38;30.10;52.00
61253;DHT22;47127;47.516;8.596;2022-08-21T14:53:04;30.20;52.50
61253;DHT22;47127;47.516;8.596;2022-08-21T14:55:31;30.20;52.90
61253;DHT22;47127;47.516;8.596;2022-08-21T14:58:16;30.50;52.00
61253;DHT22;47127;47.516;8.596;2022-08-21T15:00:42;30.70;51.00
61253;DHT22;47127;47.516;8.596;2022-08-21T15:03:08;30.90;49.30
61253;DHT22;47127;47.516;8.596;2022-08-21T15:05:33;30.90;49.10
61253;DHT22;47127;47.516;8.596;2022-08-21T15:07:59;30.70;50.20
61253;DHT22;47127;47.516;8.596;2022-08-21T15:10:25;30.70;50.20
61253;DHT22;47127;47.516;8.596;2022-08-21T15:12:50;30.70;49.60
61253;DHT22;47127;47.516;8.596;2022-08-21T15:15:16;30.40;50.20
61253;DHT22;47127;47.516;8.596;2022-08-21T15:17:41;30.60;49.80
61253;DHT22;47127;47.516;8.596;2022-08-21T15:20:08;30.00;48.80
61253;DHT22;47127;47.516;8.596;2022-08-21T15:22:34;30.10;49.00
61253;DHT22;47127;47.516;8.596;2022-08-21T15:25:00;30.20;50.10
61253;DHT22;47127;47.516;8.596;2022-08-21T15:27:26;30.40;50.20
61253;DHT22;47127;47.516;8.596;2022-08-21T15:29:52;30.30;50.00
61253;DHT22;47127;47.516;8.596;2022-08-21T15:32:28;30.50;51.90
61253;DHT22;47127;47.516;8.596;2022-08-21T15:34:56;30.50;49.80
61253;DHT22;47127;47.516;8.596;2022-08-21T15:37:23;30.70;50.10
61253;DHT22;47127;47.516;8.596;2022-08-21T15:39:49;30.50;49.40
61253;DHT22;47127;47.516;8.596;2022-08-21T15:42:16;30.30;49.40
61253;DHT22;47127;47.516;8.596;2022-08-21T15:44:42;30.50;49.10
61253;DHT22;47127;47.516;8.596;2022-08-21T15:47:14;31.00;49.20
61253;DHT22;47127;47.516;8.596;2022-08-21T15:49:41;31.30;48.20
61253;DHT22;47127;47.516;8.596;2022-08-21T15:52:20;31.40;48.00
61253;DHT22;47127;47.516;8.596;2022-08-21T15:54:46;31.00;48.10
61253;DHT22;47127;47.516;8.596;2022-08-21T15:57:15;31.00;47.80
61253;DHT22;47127;47.516;8.596;2022-08-21T15:59:53;31.40;47.90
61253;DHT22;47127;47.516;8.596;2022-08-21T16:02:29;31.80;48.80
61253;DHT22;47127;47.516;8.596;2022-08-21T16:04:55;31.80;47.90
61253;DHT22;47127;47.516;8.596;2022-08-21T16:07:21;31.60;47.70
61253;DHT22;47127;47.516;8.596;2022-08-21T16:09:47;31.60;47.90
61253;DHT22;47127;47.516;8.596;2022-08-21T16:12:27;31.30;47.30
61253;DHT22;47127;47.516;8.596;2022-08-21T16:14:54;31.30;47.40
61253;DHT22;47127;47.516;8.596;2022-08-21T16:17:22;31.60;47.20
61253;DHT22;47127;47.516;8.596;2022-08-21T16:19:50;31.50;47.30
61253;DHT22;47127;47.516;8.596;2022-08-21T16:22:15;31.50;46.90
61253;DHT22;47127;47.516;8.596;2022-08-21T16:24:41;31.50;46.70
61253;DHT22;47127;47.516;8.596;2022-08-21T16:27:06;31.40;47.20
61253;DHT22;47127;47.516;8.596;2022-08-21T16:29:35;31.20;47.10
61253;DHT22;47127;47.516;8.596;2022-08-21T16:32:02;31.30;45.70
61253;DHT22;47127;47.516;8.596;2022-08-21T16:34:28;31.20;45.60
61253;DHT22;47127;47.516;8.596;2022-08-21T16:36:54;31.20;45.70
61253;DHT22;47127;47.516;8.596;2022-08-21T16:39:19;31.30;46.40
61253;DHT22;47127;47.516;8.596;2022-08-21T16:41:47;31.30;46.60
61253;DHT22;47127;47.516;8.596;2022-08-21T16:44:13;31.20;45.30
61253;DHT22;47127;47.516;8.596;2022-08-21T16:46:40;31.40;44.20
61253;DHT22;47127;47.516;8.596;2022-08-21T16:49:06;31.40;44.90
61253;DHT22;47127;47.516;8.596;2022-08-21T16:51:32;31.30;44.50